Holland, Pennsylvania
Current Conditions -  °F | °C
As of 10:54 AM on Thursday 27 Nov 2014 (Local Time) from KPNE Reporting Station
Overcast Overcast  
Wind Chill: 33°   Ceiling: 1500
Heat Index: 39°   Visibility: 10mi
Dew Point: 31°   Wind: 8mph
Humidity: 73%   Direction: 300°WNW
Pressure: 30.04"   Gusts: NA
Location:  40.1871°N, 75.0054°W
Report Text: KPNE 271554Z AUTO 30007KT 10SM OVC015 04/M01 A3004 RMK AO2 SLP173 T00391006 TSNO
Loading
Personal Weather Stations






























Interactive Weather Map New forecast layout! Learn more

10-Day Weather Forecast

Advertisements
Track Severe Weather on mobile